Time;durP1;ratioP1;P1;durP2;ratioP2;P2;SDS_P1;SDS_P2;PMS_P1;PMS_P2;Temp;Humidity;BMP_temperature;BMP_pressure;BME280_temperature;BME280_humidity;BME280_pressure;Samples;Min_cycle;Max_cycle;Signal;HPM_P1;HPM_P2
2022/07/20 00:00:19;;;;;;;11.82;6.72;;;24.40;36.90;;;;;;5009534;28;20030;-76
2022/07/20 00:02:45;;;;;;;12.07;5.88;;;24.40;36.80;;;;;;5009504;28;20057;-76
2022/07/20 00:05:10;;;;;;;10.45;6.53;;;24.40;36.90;;;;;;5009491;28;20037;-76
2022/07/20 00:07:36;;;;;;;10.52;6.13;;;24.40;37.00;;;;;;5009735;28;20018;-76
2022/07/20 00:12:45;;;;;;;12.98;6.63;;;24.30;37.20;;;;;;5009832;28;20033;-76
2022/07/20 00:15:11;;;;;;;11.63;6.43;;;24.30;37.10;;;;;;5011143;28;20405;-74
2022/07/20 00:17:37;;;;;;;13.15;6.40;;;24.30;37.40;;;;;;5013008;28;20074;-77
2022/07/20 00:20:03;;;;;;;10.88;6.28;;;24.20;37.50;;;;;;5012951;28;20026;-75
2022/07/20 00:22:29;;;;;;;12.35;6.45;;;24.20;37.70;;;;;;5012783;28;20022;-75
2022/07/20 00:24:54;;;;;;;11.18;6.63;;;24.30;37.70;;;;;;5012706;28;20033;-74
2022/07/20 00:27:20;;;;;;;11.07;6.55;;;24.20;37.70;;;;;;5012815;28;20033;-79
2022/07/20 00:29:45;;;;;;;8.25;6.18;;;24.20;37.80;;;;;;5012587;28;20573;-74
2022/07/20 00:32:11;;;;;;;11.05;6.25;;;24.20;37.90;;;;;;5012552;28;20496;-75
2022/07/20 00:34:37;;;;;;;9.90;6.20;;;24.20;38.10;;;;;;5012506;28;20474;-75
2022/07/20 00:37:02;;;;;;;11.35;6.50;;;24.10;38.10;;;;;;5012622;28;20030;-74
2022/07/20 00:39:28;;;;;;;12.25;6.70;;;24.00;38.20;;;;;;5012327;28;20014;-75
2022/07/20 00:41:53;;;;;;;8.20;6.40;;;24.00;38.50;;;;;;5012196;28;20101;-76
2022/07/20 00:44:19;;;;;;;17.63;6.35;;;23.90;38.80;;;;;;5011825;28;20030;-75
2022/07/20 00:46:46;;;;;;;15.07;6.45;;;23.80;38.90;;;;;;5012257;28;20022;-74
2022/07/20 00:49:13;;;;;;;8.02;5.97;;;23.80;39.00;;;;;;5012121;28;20054;-75
2022/07/20 00:51:40;;;;;;;11.15;6.28;;;23.80;39.20;;;;;;5012323;28;20018;-76
2022/07/20 00:54:08;;;;;;;11.18;6.95;;;23.70;39.30;;;;;;5012426;28;20033;-76
2022/07/20 00:56:35;;;;;;;10.23;6.38;;;23.60;39.30;;;;;;5012071;28;20046;-76
2022/07/20 00:59:05;;;;;;;16.20;6.90;;;23.70;39.50;;;;;;5012477;28;20501;-75
2022/07/20 01:01:32;;;;;;;12.73;6.38;;;23.60;39.60;;;;;;5011004;28;20030;-76
2022/07/20 01:03:58;;;;;;;11.38;6.65;;;23.60;39.70;;;;;;5012235;28;20029;-76
2022/07/20 01:06:24;;;;;;;9.90;6.70;;;23.50;40.00;;;;;;5012603;28;20121;-79
2022/07/20 01:08:50;;;;;;;11.88;7.10;;;23.50;40.30;;;;;;5012451;28;20383;-78
2022/07/20 01:11:17;;;;;;;12.45;7.28;;;23.50;40.20;;;;;;5018364;28;20036;-79
2022/07/20 01:13:43;;;;;;;8.30;6.22;;;23.40;41.30;;;;;;5034338;28;20082;-79
2022/07/20 01:16:08;;;;;;;13.63;6.35;;;23.30;41.00;;;;;;5015657;28;20072;-79
2022/07/20 01:18:34;;;;;;;10.20;6.13;;;23.20;41.20;;;;;;5011094;28;20032;-79
2022/07/20 01:21:02;;;;;;;11.10;6.45;;;23.20;41.40;;;;;;5011586;28;20424;-79
2022/07/20 01:23:27;;;;;;;10.00;6.72;;;23.00;41.80;;;;;;5011916;28;20079;-80
2022/07/20 01:25:53;;;;;;;9.75;6.43;;;22.90;42.20;;;;;;5012127;28;20037;-81
2022/07/20 01:28:18;;;;;;;7.40;6.40;;;22.90;42.50;;;;;;5012015;28;20033;-80
2022/07/20 01:30:44;;;;;;;8.05;6.13;;;22.80;43.50;;;;;;5010407;28;20036;-79
2022/07/20 01:33:10;;;;;;;12.43;6.88;;;22.70;43.00;;;;;;5011736;28;20022;-79
2022/07/20 01:35:36;;;;;;;13.48;7.20;;;22.70;43.00;;;;;;5011597;28;20083;-77
2022/07/20 01:38:03;;;;;;;13.75;6.88;;;22.70;43.20;;;;;;5011535;28;20026;-78
2022/07/20 01:40:28;;;;;;;12.15;6.85;;;22.70;43.40;;;;;;5011528;28;20030;-81
2022/07/20 01:42:54;;;;;;;9.27;6.35;;;22.60;43.50;;;;;;5011600;28;20543;-82
2022/07/20 01:45:19;;;;;;;10.32;6.47;;;22.60;43.70;;;;;;5011520;28;20064;-78
2022/07/20 01:47:45;;;;;;;9.50;6.35;;;22.50;44.00;;;;;;5011726;28;20030;-78
2022/07/20 01:50:11;;;;;;;11.38;6.72;;;22.50;44.20;;;;;;5011397;28;20040;-78
2022/07/20 01:52:36;;;;;;;16.05;6.95;;;22.50;44.30;;;;;;5011482;28;20482;-81
2022/07/20 01:55:03;;;;;;;10.98;7.05;;;22.40;44.70;;;;;;5011612;28;20087;-82
2022/07/20 01:57:29;;;;;;;15.77;6.80;;;22.40;44.90;;;;;;5011252;28;20129;-83
2022/07/20 01:59:54;;;;;;;10.48;6.35;;;22.20;45.20;;;;;;5011801;28;20080;-81
2022/07/20 02:02:20;;;;;;;9.75;6.57;;;22.20;45.50;;;;;;5013116;28;20114;-78
2022/07/20 02:04:45;;;;;;;9.27;6.38;;;22.20;45.70;;;;;;5012077;28;20057;-80
2022/07/20 02:07:11;;;;;;;9.82;6.30;;;22.10;45.90;;;;;;5011284;28;20026;-78
2022/07/20 02:09:36;;;;;;;10.00;6.82;;;22.10;46.10;;;;;;5011061;28;20014;-79
2022/07/20 02:12:02;;;;;;;11.35;6.68;;;22.00;46.30;;;;;;5011536;28;20109;-77
2022/07/20 02:14:28;;;;;;;10.07;6.45;;;21.90;46.70;;;;;;5012114;28;20018;-79
2022/07/20 02:16:55;;;;;;;14.88;6.63;;;21.90;46.90;;;;;;5009707;28;20715;-79
2022/07/20 02:19:20;;;;;;;16.33;7.13;;;21.70;47.30;;;;;;5010955;28;20026;-79
2022/07/20 02:21:46;;;;;;;10.60;6.35;;;21.70;47.70;;;;;;5011091;28;20204;-80
2022/07/20 02:24:11;;;;;;;10.27;6.20;;;21.60;47.80;;;;;;5010881;28;20033;-82
2022/07/20 02:26:37;;;;;;;13.85;6.70;;;21.60;48.00;;;;;;5010975;28;20383;-83
2022/07/20 02:29:03;;;;;;;11.82;6.70;;;21.60;48.30;;;;;;5010914;28;20110;-82
2022/07/20 02:31:28;;;;;;;10.18;6.45;;;21.60;48.20;;;;;;5010944;28;20032;-79
2022/07/20 02:33:54;;;;;;;10.02;6.50;;;21.50;48.40;;;;;;5009638;28;20041;-79
2022/07/20 02:36:19;;;;;;;9.10;6.30;;;21.50;48.40;;;;;;5010780;28;20366;-80
2022/07/20 02:38:45;;;;;;;12.00;6.50;;;21.50;49.00;;;;;;5010249;28;20363;-84
2022/07/20 02:41:12;;;;;;;11.65;6.32;;;21.40;48.80;;;;;;5010887;28;20083;-84
2022/07/20 02:43:38;;;;;;;13.95;7.13;;;21.30;49.00;;;;;;5009341;28;20049;-78
2022/07/20 02:46:04;;;;;;;9.23;6.18;;;21.30;49.10;;;;;;5010496;28;20022;-79
2022/07/20 02:48:30;;;;;;;8.23;6.05;;;21.40;48.90;;;;;;5010475;28;20041;-79
2022/07/20 02:50:55;;;;;;;7.53;5.70;;;21.50;48.80;;;;;;5010430;28;20470;-78
2022/07/20 02:53:21;;;;;;;7.60;6.03;;;21.50;48.80;;;;;;5010501;28;20371;-78
2022/07/20 02:55:47;;;;;;;8.80;5.80;;;21.60;48.40;;;;;;5010185;28;20049;-80
2022/07/20 02:58:13;;;;;;;10.23;5.80;;;21.70;48.30;;;;;;5010417;28;20037;-82
2022/07/20 03:00:39;;;;;;;11.10;6.50;;;21.80;48.80;;;;;;5010309;28;20482;-78
2022/07/20 03:03:06;;;;;;;10.95;5.80;;;22.00;47.60;;;;;;5010443;28;20018;-80
2022/07/20 03:05:32;;;;;;;9.30;6.53;;;22.00;47.30;;;;;;5010279;28;20029;-79
2022/07/20 03:07:58;;;;;;;10.23;5.88;;;22.10;47.30;;;;;;5009183;28;20026;-79
2022/07/20 03:10:24;;;;;;;9.25;5.82;;;22.10;47.30;;;;;;5010376;28;20033;-79
2022/07/20 03:12:49;;;;;;;10.43;5.88;;;22.00;47.40;;;;;;5010435;28;20021;-78
2022/07/20 03:15:15;;;;;;;7.82;6.05;;;21.90;47.60;;;;;;5010278;28;20026;-79
2022/07/20 03:17:46;;;;;;;10.35;6.32;;;22.00;47.80;;;;;;5010203;28;20525;-79
2022/07/20 03:20:13;;;;;;;8.95;6.13;;;21.90;48.00;;;;;;5010267;28;20022;-78
2022/07/20 03:25:24;;;;;;;9.93;6.18;;;21.80;48.40;;;;;;5010142;28;20079;-78
2022/07/20 03:27:54;;;;;;;9.75;5.82;;;21.80;48.30;;;;;;5009928;28;20038;-78
2022/07/20 03:30:21;;;;;;;8.82;6.28;;;21.80;48.30;;;;;;5009980;28;20028;-78
2022/07/20 03:32:46;;;;;;;11.27;5.88;;;21.60;48.70;;;;;;5008636;28;20034;-78
2022/07/20 03:35:12;;;;;;;12.88;6.30;;;21.50;49.30;;;;;;5009880;28;20462;-77
2022/07/20 03:37:37;;;;;;;10.63;6.43;;;21.40;49.40;;;;;;5009952;28;20474;-77
2022/07/20 03:40:04;;;;;;;10.43;6.57;;;21.30;49.80;;;;;;5009796;28;20027;-78
2022/07/20 03:42:31;;;;;;;11.57;6.13;;;21.30;50.00;;;;;;5009668;28;20060;-78
2022/07/20 03:44:56;;;;;;;11.20;6.15;;;21.30;50.10;;;;;;5009729;28;20022;-79
2022/07/20 03:47:22;;;;;;;14.05;6.18;;;21.30;49.90;;;;;;5009624;28;20029;-78
2022/07/20 03:49:48;;;;;;;10.43;5.60;;;21.30;49.90;;;;;;5011207;28;20370;-78
2022/07/20 03:52:14;;;;;;;8.57;5.95;;;21.30;50.00;;;;;;5012857;28;20129;-79
2022/07/20 03:54:39;;;;;;;9.07;5.55;;;21.30;50.20;;;;;;5013021;28;20101;-77
2022/07/20 03:57:05;;;;;;;9.95;5.93;;;21.30;50.20;;;;;;5012704;28;20042;-76
2022/07/20 03:59:30;;;;;;;9.40;5.43;;;21.30;49.90;;;;;;5012935;28;20029;-78
2022/07/20 04:01:56;;;;;;;9.88;6.32;;;21.30;49.70;;;;;;5012867;28;20109;-76
2022/07/20 04:04:22;;;;;;;8.55;5.35;;;21.50;49.40;;;;;;5012737;28;20029;-79
2022/07/20 04:06:47;;;;;;;8.68;5.57;;;21.60;49.00;;;;;;5011274;28;20018;-78
2022/07/20 04:09:13;;;;;;;9.80;5.30;;;21.70;48.80;;;;;;5012670;28;20030;-77
2022/07/20 04:11:38;;;;;;;11.90;5.97;;;21.80;48.40;;;;;;5012585;28;20018;-77
2022/07/20 04:14:04;;;;;;;8.60;5.63;;;21.90;48.10;;;;;;5012793;28;20034;-78
2022/07/20 04:16:29;;;;;;;10.07;5.40;;;22.00;48.10;;;;;;5012635;28;20554;-79
2022/07/20 04:18:55;;;;;;;11.95;5.35;;;22.00;47.80;;;;;;5012693;28;20475;-78
2022/07/20 04:21:20;;;;;;;10.10;5.60;;;21.90;48.10;;;;;;5012320;28;20408;-78
2022/07/20 04:23:46;;;;;;;8.27;6.13;;;21.90;48.30;;;;;;5011202;28;20037;-79
2022/07/20 04:26:11;;;;;;;13.57;5.93;;;21.90;48.40;;;;;;5012552;28;20133;-77
2022/07/20 04:28:37;;;;;;;9.57;5.68;;;21.70;48.80;;;;;;5012462;28;20022;-77
2022/07/20 04:31:03;;;;;;;9.52;5.72;;;21.70;49.10;;;;;;5012635;28;20446;-77
2022/07/20 04:33:28;;;;;;;10.30;6.32;;;21.60;49.20;;;;;;5012524;28;20079;-77
2022/07/20 04:35:54;;;;;;;14.00;6.10;;;21.60;49.50;;;;;;5023873;28;20093;-75
2022/07/20 04:38:20;;;;;;;13.95;6.13;;;21.50;49.70;;;;;;5035474;28;20022;-76
2022/07/20 04:40:46;;;;;;;11.10;5.78;;;21.50;50.00;;;;;;5012786;28;20041;-76
2022/07/20 04:43:11;;;;;;;8.27;5.50;;;21.40;50.10;;;;;;5017218;28;20048;-76
2022/07/20 04:45:37;;;;;;;8.43;5.97;;;21.40;50.10;;;;;;5012423;28;20084;-77
2022/07/20 04:48:03;;;;;;;11.70;5.55;;;21.30;50.60;;;;;;5012281;28;20386;-76
2022/07/20 04:50:28;;;;;;;12.18;5.93;;;21.30;50.50;;;;;;5012291;28;20030;-77
2022/07/20 04:52:54;;;;;;;10.02;5.95;;;21.50;50.30;;;;;;5012272;28;20036;-75
2022/07/20 04:55:19;;;;;;;12.18;6.40;;;21.60;50.00;;;;;;5012132;28;20038;-78
2022/07/20 04:57:45;;;;;;;11.13;5.28;;;21.70;49.50;;;;;;5010668;28;20050;-74
2022/07/20 05:00:11;;;;;;;11.93;6.22;;;21.70;49.40;;;;;;5011732;28;20057;-79
2022/07/20 05:02:37;;;;;;;9.10;5.40;;;21.70;49.60;;;;;;5012142;28;20474;-75
2022/07/20 05:05:03;;;;;;;12.70;6.05;;;21.70;49.90;;;;;;5012014;28;20109;-79
2022/07/20 05:07:29;;;;;;;11.80;6.28;;;21.60;49.70;;;;;;5011734;28;20030;-77
2022/07/20 05:09:55;;;;;;;13.40;5.60;;;21.70;49.70;;;;;;5011831;28;20030;-78
2022/07/20 05:12:20;;;;;;;10.15;5.28;;;21.70;49.40;;;;;;5011844;28;20026;-79
2022/07/20 05:14:46;;;;;;;19.17;5.88;;;21.70;49.30;;;;;;5011729;28;20156;-79
2022/07/20 05:17:11;;;;;;;12.32;5.85;;;21.70;49.20;;;;;;5011720;28;20026;-77
2022/07/20 05:19:37;;;;;;;12.95;6.00;;;21.80;48.80;;;;;;5011710;28;20057;-78
2022/07/20 05:22:02;;;;;;;11.77;5.80;;;21.80;48.70;;;;;;5011966;28;20033;-77
2022/07/20 05:24:28;;;;;;;10.82;5.85;;;21.90;48.60;;;;;;5011686;28;20030;-79
2022/07/20 05:26:54;;;;;;;13.35;5.07;;;22.10;48.50;;;;;;5011465;28;20033;-77
2022/07/20 05:29:20;;;;;;;11.00;5.63;;;22.20;47.90;;;;;;5011186;28;20100;-76
2022/07/20 05:31:46;;;;;;;15.25;6.57;;;22.40;47.80;;;;;;5009587;28;20121;-78
2022/07/20 05:34:11;;;;;;;13.60;5.75;;;22.50;47.30;;;;;;5011575;28;20028;-77
2022/07/20 05:36:37;;;;;;;10.55;5.40;;;22.60;47.10;;;;;;5011158;28;20030;-77
2022/07/20 05:39:03;;;;;;;10.35;5.25;;;22.70;47.00;;;;;;5011233;28;20026;-77
2022/07/20 05:41:28;;;;;;;12.20;5.60;;;22.80;47.00;;;;;;5011271;28;20471;-78
2022/07/20 05:43:54;;;;;;;11.18;5.38;;;22.90;46.90;;;;;;5010296;28;20095;-77
2022/07/20 05:46:19;;;;;;;10.32;5.85;;;23.00;46.60;;;;;;5011192;28;20022;-78
2022/07/20 05:48:45;;;;;;;10.25;5.50;;;23.20;46.10;;;;;;5011241;28;20022;-78
2022/07/20 05:51:10;;;;;;;9.40;5.53;;;23.30;45.50;;;;;;5011213;28;20101;-77
2022/07/20 05:53:36;;;;;;;13.35;5.20;;;23.40;45.20;;;;;;5011192;28;20037;-77
2022/07/20 05:56:01;;;;;;;11.40;5.47;;;23.60;45.10;;;;;;5010697;28;20058;-78
2022/07/20 05:58:27;;;;;;;8.90;5.45;;;23.70;45.30;;;;;;5011021;28;20519;-76
2022/07/20 06:00:53;;;;;;;11.13;5.40;;;23.80;45.20;;;;;;5010933;28;20382;-77
2022/07/20 06:03:18;;;;;;;9.95;5.75;;;23.90;45.40;;;;;;5011146;28;20022;-76
2022/07/20 06:05:44;;;;;;;9.48;5.97;;;24.10;45.60;;;;;;5010721;28;20068;-76
2022/07/20 06:08:10;;;;;;;13.07;5.57;;;24.20;44.90;;;;;;5011043;28;20021;-75
2022/07/20 06:10:36;;;;;;;11.77;5.60;;;24.30;44.00;;;;;;5010902;28;20366;-75
2022/07/20 06:13:03;;;;;;;12.38;5.70;;;24.30;43.90;;;;;;5010044;28;20018;-77
2022/07/20 06:15:29;;;;;;;17.83;5.43;;;24.40;44.10;;;;;;5010784;28;20037;-77
2022/07/20 06:17:55;;;;;;;11.68;5.65;;;24.60;43.60;;;;;;5010793;28;20026;-79
2022/07/20 06:20:21;;;;;;;12.68;5.65;;;24.70;43.30;;;;;;5010840;28;20044;-78
2022/07/20 06:22:46;;;;;;;11.25;5.53;;;24.80;42.00;;;;;;5014314;28;20050;-79
2022/07/20 06:25:13;;;;;;;13.80;5.57;;;24.80;43.10;;;;;;5011728;28;20482;-79
2022/07/20 06:27:40;;;;;;;8.95;5.32;;;24.90;43.10;;;;;;5010691;28;20053;-79
2022/07/20 06:30:08;;;;;;;10.18;5.13;;;25.10;42.90;;;;;;5010069;28;20328;-77
2022/07/20 06:32:34;;;;;;;7.50;4.80;;;25.30;42.30;;;;;;5010368;28;20022;-79
2022/07/20 06:34:59;;;;;;;11.63;5.70;;;25.50;42.00;;;;;;5010464;28;20109;-80
2022/07/20 06:37:26;;;;;;;15.73;5.53;;;25.80;42.00;;;;;;5010453;28;20025;-77
2022/07/20 06:39:52;;;;;;;11.60;6.63;;;25.90;41.30;;;;;;5010595;28;20110;-79
2022/07/20 06:42:18;;;;;;;11.30;5.75;;;26.10;41.30;;;;;;5010765;28;20071;-78
2022/07/20 06:44:44;;;;;;;20.50;6.80;;;26.10;41.20;;;;;;5010463;28;20120;-80
2022/07/20 06:47:10;;;;;;;18.92;6.28;;;26.20;40.90;;;;;;5008744;28;20049;-78
2022/07/20 06:49:36;;;;;;;13.00;6.07;;;26.30;40.50;;;;;;5008986;28;20048;-78
2022/07/20 06:52:01;;;;;;;15.13;6.55;;;26.40;40.40;;;;;;5010218;28;20051;-80
2022/07/20 06:54:27;;;;;;;13.35;6.22;;;26.50;40.10;;;;;;5010218;28;20501;-80
2022/07/20 06:56:53;;;;;;;15.10;6.30;;;26.70;39.90;;;;;;5010243;28;20054;-80
2022/07/20 06:59:19;;;;;;;12.02;6.07;;;26.90;39.70;;;;;;5010305;28;20105;-80
2022/07/20 07:01:45;;;;;;;14.07;6.03;;;27.00;39.50;;;;;;5010472;28;20545;-79
2022/07/20 07:04:10;;;;;;;11.85;5.18;;;27.10;39.00;;;;;;5010382;28;20110;-80
2022/07/20 07:06:36;;;;;;;13.82;5.40;;;27.30;38.90;;;;;;5010129;28;20072;-81
2022/07/20 07:09:03;;;;;;;10.32;5.40;;;27.40;39.00;;;;;;5010022;28;20415;-81
2022/07/20 07:11:29;;;;;;;9.82;4.95;;;27.50;38.70;;;;;;5010169;28;20030;-85
2022/07/20 07:13:54;;;;;;;12.77;5.95;;;27.60;38.60;;;;;;5011497;28;20105;-82
2022/07/20 07:16:20;;;;;;;7.75;5.18;;;27.70;39.20;;;;;;5009263;28;20042;-82
2022/07/20 07:18:45;;;;;;;10.05;5.40;;;27.90;39.30;;;;;;5009069;28;20030;-84
2022/07/20 07:21:11;;;;;;;9.80;5.05;;;28.00;39.00;;;;;;5008842;28;20401;-83
2022/07/20 07:23:37;;;;;;;11.15;5.30;;;28.10;39.10;;;;;;5008639;28;20022;-83
2022/07/20 07:26:03;;;;;;;6.97;4.90;;;28.20;38.90;;;;;;5008749;28;20032;-82
2022/07/20 07:28:28;;;;;;;9.63;4.97;;;28.30;37.80;;;;;;5010104;28;20029;-83
2022/07/20 07:30:54;;;;;;;8.02;4.47;;;28.50;36.50;;;;;;5009479;28;20390;-83
2022/07/20 07:33:25;;;;;;;9.07;5.70;;;28.60;36.00;;;;;;5008623;28;20462;-83
2022/07/20 07:35:51;;;;;;;12.98;4.75;;;28.70;34.80;;;;;;5010540;28;20026;-83
2022/07/20 07:38:17;;;;;;;10.35;4.82;;;28.80;34.20;;;;;;5009163;28;20065;-82
2022/07/20 07:40:42;;;;;;;7.03;4.75;;;28.90;33.90;;;;;;5008867;28;20068;-83
2022/07/20 07:43:08;;;;;;;8.10;4.90;;;29.00;34.40;;;;;;5010542;28;20485;-82
2022/07/20 07:45:33;;;;;;;9.65;5.20;;;29.10;34.20;;;;;;5009027;28;20028;-82
2022/07/20 07:47:59;;;;;;;7.10;5.70;;;29.20;33.80;;;;;;5010452;28;20018;-82
2022/07/20 07:50:24;;;;;;;7.90;5.13;;;29.20;33.60;;;;;;5010982;28;20467;-82
2022/07/20 07:52:50;;;;;;;7.70;5.03;;;29.30;32.80;;;;;;5013294;28;20034;-83
2022/07/20 07:55:16;;;;;;;11.07;5.47;;;29.50;32.70;;;;;;5032180;28;20022;-83
2022/07/20 07:57:42;;;;;;;7.57;5.13;;;29.50;33.00;;;;;;5026232;28;20567;-83
2022/07/20 08:00:08;;;;;;;8.48;5.13;;;29.70;33.00;;;;;;5009067;28;20113;-83
2022/07/20 08:02:34;;;;;;;9.15;4.82;;;29.90;31.80;;;;;;5009054;28;20026;-83
2022/07/20 08:05:00;;;;;;;6.00;4.43;;;29.90;30.80;;;;;;5010018;28;20412;-83
2022/07/20 08:07:25;;;;;;;10.55;4.65;;;30.10;30.80;;;;;;5010013;28;20033;-83
2022/07/20 08:09:51;;;;;;;6.85;3.88;;;30.10;30.50;;;;;;5009106;28;20022;-82
2022/07/20 08:12:16;;;;;;;6.80;4.10;;;30.30;27.90;;;;;;5010322;28;20147;-82
2022/07/20 08:14:42;;;;;;;8.65;4.35;;;30.40;27.00;;;;;;5011206;28;20045;-81
2022/07/20 08:17:08;;;;;;;11.95;4.90;;;30.40;27.10;;;;;;5009903;28;20090;-81
2022/07/20 08:19:33;;;;;;;6.30;3.92;;;30.50;26.90;;;;;;5009192;28;20022;-82
2022/07/20 08:21:59;;;;;;;8.85;4.18;;;30.60;26.30;;;;;;5009996;28;20033;-82
2022/07/20 08:24:25;;;;;;;5.57;3.83;;;30.60;27.20;;;;;;5009259;28;20026;-82
2022/07/20 08:26:50;;;;;;;5.82;4.53;;;30.70;27.60;;;;;;5009252;28;20117;-82
2022/07/20 08:29:16;;;;;;;6.40;4.07;;;30.80;26.80;;;;;;5009458;28;20025;-82
2022/07/20 08:31:42;;;;;;;6.47;4.18;;;30.90;26.70;;;;;;5009501;28;20026;-82
2022/07/20 08:34:08;;;;;;;8.73;4.45;;;30.90;26.80;;;;;;5008169;28;20025;-82
2022/07/20 08:36:33;;;;;;;9.45;4.53;;;31.00;27.80;;;;;;5011617;28;20030;-82
2022/07/20 08:38:59;;;;;;;7.72;4.43;;;30.90;27.20;;;;;;5011537;28;20022;-83
2022/07/20 08:41:25;;;;;;;9.48;5.10;;;31.00;27.80;;;;;;5013815;28;20110;-82
2022/07/20 08:43:50;;;;;;;9.18;4.97;;;31.20;27.30;;;;;;5014415;28;20033;-82
2022/07/20 08:46:17;;;;;;;6.70;5.07;;;31.20;27.30;;;;;;5029248;28;20026;-82
2022/07/20 08:48:42;;;;;;;5.13;4.10;;;31.30;27.10;;;;;;5023643;28;20029;-83
2022/07/20 08:51:09;;;;;;;8.30;4.70;;;31.20;27.40;;;;;;5025449;28;20025;-82
2022/07/20 08:53:34;;;;;;;8.13;4.65;;;31.30;27.30;;;;;;5025089;28;20087;-83
2022/07/20 08:56:00;;;;;;;7.85;4.85;;;31.50;27.60;;;;;;5011985;28;20456;-83
2022/07/20 08:58:26;;;;;;;9.38;4.45;;;31.50;27.70;;;;;;5017240;28;20049;-83
2022/07/20 09:00:51;;;;;;;6.00;4.68;;;31.40;27.70;;;;;;5012464;28;20026;-81
2022/07/20 09:03:18;;;;;;;10.75;5.45;;;31.50;27.20;;;;;;5012312;28;20443;-82
2022/07/20 09:05:43;;;;;;;7.03;4.55;;;31.60;27.70;;;;;;5011620;28;20026;-83
2022/07/20 09:08:17;;;;;;;7.43;4.78;;;31.60;28.00;;;;;;5012294;28;20409;-82
2022/07/20 09:10:46;;;;;;;5.65;4.63;;;31.80;27.50;;;;;;5012852;28;20386;-82
2022/07/20 09:13:21;;;;;;;5.95;4.53;;;31.80;26.80;;;;;;5012355;28;20018;-79
2022/07/20 09:15:53;;;;;;;9.45;4.78;;;31.80;27.60;;;;;;5011963;28;20033;-79
2022/07/20 09:18:20;;;;;;;7.55;4.97;;;32.00;27.10;;;;;;5012014;28;20026;-77
2022/07/20 09:20:47;;;;;;;10.73;5.25;;;32.10;26.70;;;;;;5010488;28;20033;-78
2022/07/20 09:23:21;;;;;;;7.10;4.93;;;32.10;27.40;;;;;;5010606;28;20045;-77
2022/07/20 09:26:00;;;;;;;6.43;4.70;;;32.20;26.90;;;;;;5011990;28;20489;-77
2022/07/20 09:28:56;;;;;;;7.43;4.82;;;32.30;27.10;;;;;;5011981;28;20029;-78
2022/07/20 09:31:26;;;;;;;10.90;5.05;;;32.30;27.00;;;;;;5023953;28;20041;-77
2022/07/20 09:33:57;;;;;;;5.68;4.85;;;32.30;26.30;;;;;;5011299;28;20025;-78
2022/07/20 09:36:26;;;;;;;6.20;5.43;;;32.30;26.00;;;;;;5011214;28;20041;-78
2022/07/20 09:38:52;;;;;;;14.75;4.97;;;32.30;25.90;;;;;;5011523;28;20018;-77
2022/07/20 09:41:29;;;;;;;4.65;4.22;;;32.30;26.10;;;;;;5011545;28;20398;-77
2022/07/20 09:43:57;;;;;;;8.75;5.15;;;32.30;26.20;;;;;;5011307;28;20034;-77
2022/07/20 09:46:32;;;;;;;6.03;4.72;;;32.40;26.20;;;;;;5009568;28;20026;-77
2022/07/20 09:49:01;;;;;;;8.75;4.80;;;32.60;25.70;;;;;;5010843;28;20360;-76
2022/07/20 09:51:38;;;;;;;8.77;4.85;;;32.70;24.30;;;;;;5011214;28;20026;-77
2022/07/20 09:54:13;;;;;;;7.93;4.97;;;32.60;24.50;;;;;;5011290;28;20044;-76
2022/07/20 09:56:44;;;;;;;7.78;5.18;;;32.60;24.40;;;;;;5010875;28;20517;-79
2022/07/20 09:59:11;;;;;;;8.38;4.50;;;32.70;24.20;;;;;;5010911;28;20022;-76
2022/07/20 10:01:42;;;;;;;5.43;4.88;;;32.80;24.10;;;;;;5010918;28;20359;-76
2022/07/20 10:04:10;;;;;;;7.85;4.80;;;33.00;24.60;;;;;;5010928;28;20018;-76
2022/07/20 10:06:39;;;;;;;11.73;5.38;;;33.10;24.60;;;;;;5010713;28;20041;-76
2022/07/20 10:09:06;;;;;;;10.38;4.97;;;33.20;23.90;;;;;;5010866;28;20061;-76
2022/07/20 10:11:32;;;;;;;7.05;4.95;;;33.30;23.90;;;;;;5010453;28;20102;-76
2022/07/20 10:14:01;;;;;;;5.63;4.55;;;33.40;23.50;;;;;;5010675;28;20413;-76
2022/07/20 10:16:34;;;;;;;7.32;5.20;;;33.60;23.10;;;;;;5010491;28;20066;-77
2022/07/20 10:19:01;;;;;;;8.43;5.22;;;33.90;22.90;;;;;;5010885;28;20022;-76
2022/07/20 10:21:48;;;;;;;11.40;4.88;;;34.10;22.80;;;;;;5011043;28;20105;-76
2022/07/20 10:24:34;;;;;;;7.18;5.10;;;34.30;23.00;;;;;;5010600;28;20026;-76
2022/07/20 10:27:02;;;;;;;5.28;4.78;;;34.40;22.00;;;;;;5010481;28;20051;-75
2022/07/20 10:29:34;;;;;;;6.90;4.75;;;34.30;22.00;;;;;;5010544;28;20427;-75
2022/07/20 10:32:09;;;;;;;6.95;4.43;;;34.40;20.90;;;;;;5009465;28;20377;-75
2022/07/20 10:34:36;;;;;;;;;;;34.50;21.70;;;;;;5010770;28;20030;-76
2022/07/20 10:37:39;;;;;;;8.15;4.97;;;34.60;21.00;;;;;;5009994;28;20020;-75
2022/07/20 10:40:11;;;;;;;10.50;5.00;;;34.70;20.60;;;;;;5010384;28;20022;-76
2022/07/20 10:42:46;;;;;;;6.35;4.55;;;34.90;20.00;;;;;;5010483;28;20109;-76
2022/07/20 10:45:22;;;;;;;8.52;4.20;;;34.90;19.60;;;;;;5010781;28;20033;-76
2022/07/20 10:48:14;;;;;;;8.05;4.50;;;35.20;20.20;;;;;;5010558;28;20407;-76
2022/07/20 10:50:43;;;;;;;9.70;5.53;;;35.40;20.00;;;;;;5010395;28;20029;-76
2022/07/20 10:53:11;;;;;;;8.88;4.57;;;35.60;19.80;;;;;;5008684;28;20033;-76
2022/07/20 10:55:37;;;;;;;9.18;4.72;;;35.60;19.80;;;;;;5010002;28;20386;-75
2022/07/20 10:58:13;;;;;;;5.30;4.45;;;35.80;19.30;;;;;;5009475;28;20082;-77
2022/07/20 11:00:44;;;;;;;8.05;4.72;;;35.90;19.30;;;;;;5010786;28;20018;-76
2022/07/20 11:03:17;;;;;;;11.85;4.60;;;36.10;19.50;;;;;;5010160;28;20065;-76
2022/07/20 11:05:45;;;;;;;8.07;5.35;;;36.50;19.70;;;;;;5010447;28;20406;-76
2022/07/20 11:08:12;;;;;;;9.90;4.38;;;36.70;19.00;;;;;;5011253;28;20018;-74
2022/07/20 11:10:39;;;;;;;11.32;4.38;;;36.90;18.20;;;;;;5011535;28;20030;-75
2022/07/20 11:13:07;;;;;;;9.05;4.82;;;36.60;18.40;;;;;;5010471;28;20611;-76
2022/07/20 11:15:39;;;;;;;7.93;5.20;;;36.70;18.20;;;;;;5016418;28;20085;-76
2022/07/20 11:18:07;;;;;;;9.02;4.97;;;36.30;18.80;;;;;;5023075;28;20045;-78
2022/07/20 11:20:32;;;;;;;7.32;4.97;;;36.20;19.40;;;;;;5011822;28;20026;-78
2022/07/20 11:23:00;;;;;;;6.80;5.03;;;36.40;19.20;;;;;;5016736;28;20037;-78
2022/07/20 11:25:29;;;;;;;10.85;4.72;;;36.60;18.90;;;;;;5011576;28;20033;-79
2022/07/20 11:28:01;;;;;;;8.30;4.80;;;36.70;19.10;;;;;;5032020;28;20029;-77
2022/07/20 11:30:36;;;;;;;5.00;4.35;;;36.70;19.30;;;;;;5034300;28;20054;-77
2022/07/20 11:33:02;;;;;;;5.75;5.10;;;36.50;19.70;;;;;;5033497;28;20022;-77
2022/07/20 11:35:28;;;;;;;11.63;5.60;;;36.50;19.60;;;;;;5033609;28;20056;-77
2022/07/20 11:37:54;;;;;;;7.60;5.60;;;36.40;20.40;;;;;;5032747;28;20031;-76
2022/07/20 11:40:21;;;;;;;10.45;5.97;;;36.00;21.20;;;;;;5033061;28;20022;-76
2022/07/20 11:43:10;;;;;;;8.73;5.97;;;35.50;21.90;;;;;;5032032;28;20014;-77
2022/07/20 11:45:37;;;;;;;9.32;5.55;;;35.10;22.60;;;;;;5032459;28;20075;-77
2022/07/20 11:48:19;;;;;;;7.28;5.40;;;34.80;22.50;;;;;;5031319;28;20063;-77
2022/07/20 11:50:45;;;;;;;10.10;6.95;;;34.40;24.30;;;;;;5031922;28;20036;-77
2022/07/20 11:53:29;;;;;;;20.60;9.43;;;34.00;26.10;;;;;;5032124;28;20034;-77
2022/07/20 11:55:59;;;;;;;24.20;11.32;;;33.40;29.80;;;;;;5019790;28;20103;-77
2022/07/20 11:58:30;;;;;;;19.58;12.18;;;32.80;31.60;;;;;;5010627;28;20045;-78
2022/07/20 12:00:56;;;;;;;16.27;12.32;;;32.20;33.50;;;;;;5009539;28;20424;-74
2022/07/20 12:03:29;;;;;;;23.02;12.70;;;31.60;34.90;;;;;;5009183;28;20022;-79
2022/07/20 12:05:58;;;;;;;27.88;12.43;;;31.00;37.00;;;;;;5009519;28;20037;-74
2022/07/20 12:08:24;;;;;;;29.52;13.43;;;30.60;37.40;;;;;;5009479;28;20033;-78
2022/07/20 12:10:50;;;;;;;30.50;13.57;;;30.40;38.00;;;;;;5011683;28;20022;-74
2022/07/20 12:13:16;;;;;;;22.98;13.30;;;30.10;38.90;;;;;;5013227;28;20036;-76
2022/07/20 12:15:52;;;;;;;22.42;13.32;;;30.00;39.10;;;;;;5013417;28;20029;-77
2022/07/20 12:18:45;;;;;;;22.48;13.88;;;30.00;39.80;;;;;;5013871;28;20018;-74
2022/07/20 12:21:17;;;;;;;24.23;14.02;;;29.80;40.80;;;;;;5012646;28;20419;-75
2022/07/20 12:23:49;;;;;;;27.88;15.35;;;29.50;41.90;;;;;;5012740;28;20057;-75
2022/07/20 12:26:25;;;;;;;20.23;14.50;;;29.30;43.30;;;;;;5013285;28;20022;-76
2022/07/20 12:28:58;;;;;;;24.63;15.43;;;29.10;45.20;;;;;;5013312;28;20037;-76
2022/07/20 12:31:25;;;;;;;21.83;15.18;;;29.10;46.30;;;;;;5013174;28;20042;-76
2022/07/20 12:34:11;;;;;;;25.23;13.68;;;28.80;46.80;;;;;;5013387;28;20058;-77
2022/07/20 12:36:48;;;;;;;20.67;13.73;;;28.50;49.40;;;;;;5012600;28;20103;-75
2022/07/20 12:39:34;;;;;;;15.90;13.80;;;28.30;48.50;;;;;;5012767;28;20064;-74
2022/07/20 12:42:19;;;;;;;19.05;14.05;;;28.40;47.70;;;;;;5015319;28;20049;-76
2022/07/20 12:44:46;;;;;;;20.27;14.38;;;28.60;47.30;;;;;;5012668;28;20050;-75
2022/07/20 12:47:13;;;;;;;22.42;13.68;;;29.10;46.90;;;;;;5012532;28;20030;-75